Angie, LA (70467)

9:04 AM CST on March 03, 2015 (GMT -0600)
Grand Coteau Observatory | Change Station
CLOSE
Current Station
Personal Weather Station
Location: Poplarville, MS
Elevation: 243 ft
Nearby Weather Stations
Active Advisory: Flood Warning Active Notice: Public Information Statement

Elev 243 ft 30.97 °N, 89.66 °W | Updated 1 minute ago

Fog
Fog
67.3 °F
Feels Like 67.3 °F
N
1.0
Wind Variable Wind from East
Gusts 1.0 mph

Today
High -- | Low -- °F
--% Chance of Precip.
Yesterday
High -- | Low -- °F
Precip. -- in
6:23 AM 5:59 PM
Waxing Gibbous, 96% visible
Pressure 30.16 in
Visibility 1.0 miles
Clouds
Dew Point 6 °F
Humidity 9%
Rainfall 0.00 in
Snow Depth Not available.
UV 1.1 out of 12
Pollen 9.80 out of 12
Air Quality Not available.
Flu Activity Not available.
METAR KBXA 031455Z AUTO 17006KT 1SM BR 20/18 A3016 RMK AO2 T01970182

More Conditions Fewer Conditions

Pressure 30.16 in
Visibility 1.0 miles
Clouds
Dew Point 6 °F
Humidity 9%
Rainfall 0.00 in
Snow Depth Not available.
UV 1.1 out of 12
Pollen 9.80 out of 12
Air Quality Not available.
Flu Activity Not available.
METAR KBXA 031455Z AUTO 17006KT 1SM BR 20/18 A3016 RMK AO2 T01970182

More Conditions Fewer Conditions

10-Day Weather Forecast

Almanac

Astronomy

Mar. 03, 2015 Rise Set
Actual Time
Civil Twilight
Nautical Twilight
Astronomical Twilight
Moon
Length of Visible Light
Length of Day
Tomorrow will be .
, % of the Moon is Illuminated

Today's Extremes

State Highs State Lows

Community

WunderPhotos

Upload Photos

1,802,133 photos uploaded!

WunderBlogs® & News

Nearby

Air Quality

  Air Quality AQ Index Pollutant
Not available.

Snow Depth

Station Depth Elevation

Earthquake Activity

City Distance Mag. Time & Date
Minimum magnitude displayed is 2.5.

Coastal Water Temperatures

Place Temperature

Nearby Weather Stations

Flood Warning
Statement as of 7:53 PM CST on March 02, 2015

The Flood Warning continues for
the Pearl River near Bogalusa.
* Until further notice.
* At 7:00 PM Monday the stage was 19.6 feet.
* Minor flooding is occurring and minor flooding is forecast.
* Flood stage is 18.0 feet.
* Forecast... the river is expected to continue rising until cresting
at around 20.5 feet by late Thursday night. The river is expected
to begin slowly falling thereafter.
* Impact... at 20.0 feet... Woodlands and crop acreage along the river
will be flooded. The Bogue Chitto wildlife management area will be
inundated with water in recreational camps and over access roads.
* Impact... at 18.5 feet... Woodlands and crop acreage along the river
will be flooded. The Bogue Chitto wildlife management area will be
inundated with water in recreational camps and over access roads.



Lat... Lon 3100 8969 3100 8979 3067 8990 3067 8976